Time;durP1;ratioP1;P1;durP2;ratioP2;P2;SDS_P1;SDS_P2;PMS_P1;PMS_P2;Temp;Humidity;BMP_temperature;BMP_pressure;BME280_temperature;BME280_humidity;BME280_pressure;Samples;Min_cycle;Max_cycle;Signal;HPM_P1;HPM_P2
2022/05/26 00:01:18;;;;;;;3.63;2.23;;;;;;;16.92;46.30;100352.24;1772062;80;21553;-57
2022/05/26 00:03:48;;;;;;;7.80;2.58;;;;;;;16.90;46.53;100349.05;1769397;80;21443;-57
2022/05/26 00:06:18;;;;;;;5.87;3.05;;;;;;;16.82;46.66;100348.04;1766385;81;20949;-61
2022/05/26 00:08:45;;;;;;;6.70;3.80;;;;;;;16.74;47.09;100351.78;1730233;82;21880;-61
2022/05/26 00:11:20;;;;;;;7.42;3.80;;;;;;;16.63;47.90;100344.59;1730700;81;21173;-60
2022/05/26 00:13:47;;;;;;;6.30;4.10;;;;;;;16.58;48.54;100343.11;1732523;80;20958;-60
2022/05/26 00:16:14;;;;;;;7.17;4.00;;;;;;;16.52;49.13;100344.81;1745133;82;21180;-66
2022/05/26 00:18:43;;;;;;;8.55;3.85;;;;;;;16.63;49.39;100342.45;1745581;82;21834;-62
2022/05/26 00:21:10;;;;;;;6.00;3.87;;;;;;;16.61;49.75;100338.73;1746553;80;20985;-57
2022/05/26 00:23:37;;;;;;;7.10;4.62;;;;;;;16.53;50.35;100335.09;1746277;82;21488;-56
2022/05/26 00:26:04;;;;;;;5.78;3.85;;;;;;;16.38;51.23;100334.65;1745521;82;20867;-63
2022/05/26 00:28:31;;;;;;;6.17;3.45;;;;;;;16.29;52.27;100337.58;1745535;82;21030;-57
2022/05/26 00:30:59;;;;;;;6.42;3.55;;;;;;;16.37;51.98;100333.05;1746310;80;21089;-59
2022/05/26 00:33:26;;;;;;;5.17;2.95;;;;;;;16.28;52.23;100336.45;1746458;80;20894;-58
2022/05/26 00:35:53;;;;;;;4.08;2.60;;;;;;;15.91;53.99;100348.26;1746254;80;21539;-56
2022/05/26 00:38:20;;;;;;;4.42;2.77;;;;;;;15.93;54.74;100342.77;1744752;82;20947;-64
2022/05/26 00:40:47;;;;;;;5.25;3.15;;;;;;;16.05;54.76;100341.03;1734329;82;21390;-58
2022/05/26 00:43:14;;;;;;;6.67;3.22;;;;;;;16.09;55.30;100349.30;1745757;82;21030;-58
2022/05/26 00:45:47;;;;;;;6.90;4.12;;;;;;;16.04;55.82;100342.86;1746632;80;22313;-57
2022/05/26 00:48:15;;;;;;;8.05;4.53;;;;;;;16.04;56.24;100341.55;1745510;80;21095;-60
2022/05/26 00:50:50;;;;;;;7.97;4.72;;;;;;;15.95;55.84;100336.80;1746583;80;21571;-59
2022/05/26 00:53:46;;;;;;;7.15;4.70;;;;;;;15.87;55.99;100340.99;1746340;80;20954;-56
2022/05/26 00:56:21;;;;;;;10.43;6.03;;;;;;;15.77;56.23;100337.03;1707113;83;21317;-58
2022/05/26 00:58:51;;;;;;;6.28;4.40;;;;;;;15.76;55.89;100334.12;1711906;80;21088;-59
2022/05/26 01:01:18;;;;;;;9.98;5.12;;;;;;;15.63;56.08;100334.70;1729701;82;21251;-65
2022/05/26 01:03:53;;;;;;;8.28;5.55;;;;;;;15.51;57.05;100333.27;1747069;80;21080;-57
2022/05/26 01:06:41;;;;;;;7.83;5.20;;;;;;;15.46;58.25;100330.48;1753957;80;21017;-58
2022/05/26 01:09:08;;;;;;;9.58;5.65;;;;;;;15.32;58.70;100337.12;1704554;82;21064;-59
2022/05/26 01:11:37;;;;;;;7.90;5.28;;;;;;;15.22;58.82;100335.98;1707270;82;21522;-64
2022/05/26 01:14:14;;;;;;;20.85;6.25;;;;;;;15.25;58.95;100341.62;1761444;80;21143;-56
2022/05/26 01:16:59;;;;;;;7.78;5.47;;;;;;;15.20;59.79;100332.77;1761633;80;20985;-56
2022/05/26 01:20:07;;;;;;;9.53;5.70;;;;;;;15.10;60.87;100331.91;1761101;81;21410;-61
2022/05/26 01:23:04;;;;;;;7.42;4.55;;;;;;;15.08;61.61;100336.07;1761041;81;21546;-56
2022/05/26 01:25:50;;;;;;;5.75;4.00;;;;;;;15.02;62.05;100328.22;1761513;80;20962;-55
2022/05/26 01:29:06;;;;;;;6.50;3.67;;;;;;;15.14;61.62;100331.78;1761251;80;22735;-58
2022/05/26 01:32:15;;;;;;;6.17;2.92;;;;;;;15.17;61.52;100343.19;1761521;80;21072;-58
2022/05/26 01:35:35;;;;;;;6.47;3.00;;;;;;;15.00;62.89;100348.13;1762223;80;20957;-56
2022/05/26 01:38:35;;;;;;;7.15;4.03;;;;;;;15.07;64.02;100340.20;1761157;81;21092;-55
2022/05/26 01:41:17;;;;;;;9.28;4.72;;;;;;;14.92;66.02;100339.67;1761199;81;21037;-57
2022/05/26 01:44:07;;;;;;;8.43;4.33;;;;;;;15.04;64.98;100326.20;1760167;81;21245;-56
2022/05/26 01:46:44;;;;;;;5.15;2.90;;;;;;;15.05;64.81;100319.93;1742979;80;21006;-57
2022/05/26 01:49:33;;;;;;;5.25;2.72;;;;;;;15.00;64.65;100317.11;1761659;80;20970;-59
2022/05/26 01:52:14;;;;;;;8.50;3.00;;;;;;;14.94;65.55;100320.59;1756902;80;21530;-56
2022/05/26 01:55:11;;;;;;;6.00;4.10;;;;;;;15.20;62.77;100325.70;1754740;80;21080;-57
2022/05/26 01:57:55;;;;;;;8.85;5.67;;;;;;;15.41;62.10;100323.22;1731623;81;21278;-57
2022/05/26 02:00:22;;;;;;;6.70;4.28;;;;;;;15.84;63.55;100319.11;1730397;82;21066;-57
2022/05/26 02:03:06;;;;;;;7.40;3.90;;;;;;;16.18;62.30;100310.68;1747441;81;21302;-56
2022/05/26 02:05:37;;;;;;;5.60;2.90;;;;;;;16.57;60.50;100317.83;1754299;80;21389;-54
2022/05/26 02:08:21;;;;;;;4.60;2.58;;;;;;;17.11;57.19;100310.87;1753539;80;21253;-55
2022/05/26 02:11:04;;;;;;;4.80;2.87;;;;;;;17.65;54.39;100306.41;1730455;81;21266;-62
2022/05/26 02:13:52;;;;;;;4.12;2.60;;;;;;;18.20;51.86;100302.63;1754620;80;21225;-61
2022/05/26 02:16:24;;;;;;;4.17;2.87;;;;;;;18.83;49.78;100301.00;1753219;81;21045;-58
2022/05/26 02:19:33;;;;;;;3.60;2.20;;;;;;;19.48;47.28;100291.27;1742897;81;21292;-54
2022/05/26 02:22:15;;;;;;;4.80;2.60;;;;;;;20.26;45.41;100290.78;1753085;81;21358;-55
2022/05/26 02:24:53;;;;;;;5.85;2.65;;;;;;;21.03;43.40;100278.41;1753575;81;21972;-55
2022/05/26 02:27:20;;;;;;;6.27;2.60;;;;;;;21.84;41.64;100284.86;1742421;81;21081;-61
2022/05/26 02:29:59;;;;;;;5.30;3.03;;;;;;;22.83;39.63;100283.12;1742252;80;21005;-55
2022/05/26 02:32:35;;;;;;;7.57;3.20;;;;;;;23.39;37.99;100277.07;1753672;80;21038;-60
2022/05/26 02:35:07;;;;;;;5.80;3.30;;;;;;;24.42;36.43;100283.75;1720647;81;22319;-59
2022/05/26 02:37:34;;;;;;;5.50;3.50;;;;;;;25.04;34.98;100276.16;1753806;80;21489;-55
2022/05/26 02:40:01;;;;;;;8.70;4.70;;;;;;;24.99;34.52;100283.66;1730742;81;21018;-54
2022/05/26 02:42:30;;;;;;;7.30;4.57;;;;;;;24.76;34.61;100271.83;1753181;81;21396;-55
2022/05/26 02:44:57;;;;;;;7.40;4.90;;;;;;;25.00;34.10;100273.25;1754321;80;21006;-55
2022/05/26 02:48:10;;;;;;;7.33;4.23;;;;;;;25.21;33.54;100269.38;1753300;80;21052;-54
2022/05/26 02:51:00;;;;;;;6.73;3.70;;;;;;;25.45;33.08;100268.09;1753012;80;21872;-54
2022/05/26 02:53:53;;;;;;;5.80;3.80;;;;;;;25.87;32.48;100270.62;1753071;80;21079;-55
2022/05/26 02:56:41;;;;;;;7.07;4.00;;;;;;;26.51;31.86;100273.06;1754172;80;21082;-54
2022/05/26 02:59:54;;;;;;;5.60;3.60;;;;;;;27.35;30.96;100279.29;1705324;81;21037;-55
2022/05/26 03:02:38;;;;;;;5.50;3.20;;;;;;;28.17;29.79;100264.34;1694375;83;21565;-56
2022/05/26 03:05:32;;;;;;;4.60;3.50;;;;;;;29.12;28.47;100263.58;1690798;83;22372;-54
2022/05/26 03:08:00;;;;;;;4.87;3.40;;;;;;;29.80;27.03;100269.84;1753281;81;20918;-56
2022/05/26 03:10:29;;;;;;;8.50;3.20;;;;;;;30.59;26.26;100270.01;1768561;80;20980;-54
2022/05/26 03:12:59;;;;;;;4.93;3.27;;;;;;;31.19;25.66;100269.17;1769205;80;21029;-54
2022/05/26 03:15:28;;;;;;;4.27;2.87;;;;;;;31.73;24.49;100258.13;1769163;80;20989;-54
2022/05/26 03:17:55;;;;;;;4.25;2.90;;;;;;;32.34;23.68;100253.72;1767790;80;21542;-56
2022/05/26 03:20:22;;;;;;;4.78;3.27;;;;;;;32.76;23.03;100259.10;1768491;80;21315;-57
2022/05/26 03:22:50;;;;;;;6.10;3.72;;;;;;;32.93;22.31;100253.58;1768780;81;21033;-57
2022/05/26 03:25:18;;;;;;;5.05;3.40;;;;;;;33.28;21.77;100255.89;1768838;80;21001;-56
2022/05/26 03:27:46;;;;;;;4.53;3.02;;;;;;;33.53;21.38;100252.69;1731431;81;21571;-56
2022/05/26 03:30:14;;;;;;;5.35;3.42;;;;;;;33.80;21.18;100246.38;1731614;81;21571;-62
2022/05/26 03:32:41;;;;;;;6.35;3.15;;;;;;;33.89;20.81;100254.56;1732197;80;21856;-55
2022/05/26 03:40:52;;;;;;;5.35;3.98;;;;;;;34.77;19.87;100262.14;1720174;81;20995;-55
2022/05/26 03:43:20;;;;;;;6.12;4.05;;;;;;;34.80;19.79;100265.52;1735503;81;21319;-62
2022/05/26 03:45:49;;;;;;;6.67;3.98;;;;;;;34.67;19.92;100261.30;1724588;80;21433;-56
2022/05/26 03:48:16;;;;;;;5.95;4.08;;;;;;;35.02;19.92;100267.69;1737234;80;21077;-56
2022/05/26 03:50:43;;;;;;;6.47;3.98;;;;;;;35.36;19.79;100270.85;1735284;82;21131;-56
2022/05/26 03:53:11;;;;;;;6.90;4.72;;;;;;;35.71;19.68;100264.73;1735136;82;21069;-63
2022/05/26 03:55:38;;;;;;;8.28;4.60;;;;;;;35.96;19.19;100270.72;1735314;80;21570;-58
2022/05/26 03:58:06;;;;;;;6.40;4.67;;;;;;;35.82;18.96;100276.61;1736375;80;22356;-57
2022/05/26 04:00:33;;;;;;;4.78;3.90;;;;;;;35.62;19.36;100260.07;1735502;82;20966;-57
2022/05/26 04:03:00;;;;;;;7.62;3.92;;;;;;;35.99;19.17;100268.66;1735542;80;21485;-57
2022/05/26 04:05:27;;;;;;;5.80;3.85;;;;;;;36.15;19.02;100269.42;1730936;81;20955;-61
2022/05/26 04:07:56;;;;;;;6.25;4.47;;;;;;;36.40;18.57;100264.48;1727840;82;21018;-54
2022/05/26 04:10:24;;;;;;;7.25;4.10;;;;;;;36.74;18.40;100268.85;1728110;82;21077;-54
2022/05/26 04:12:51;;;;;;;5.00;3.90;;;;;;;36.84;18.22;100271.56;1728211;82;21521;-55
2022/05/26 04:15:19;;;;;;;7.10;3.92;;;;;;;36.92;18.17;100271.91;1728115;82;21034;-58
2022/05/26 04:17:46;;;;;;;4.72;3.60;;;;;;;36.87;18.25;100277.06;1727246;82;21685;-54
2022/05/26 04:20:17;;;;;;;5.17;3.85;;;;;;;37.06;18.32;100271.41;1727975;82;21609;-56
2022/05/26 04:22:45;;;;;;;7.42;4.10;;;;;;;37.26;17.95;100262.81;1727519;82;21045;-54
2022/05/26 04:25:12;;;;;;;4.58;3.25;;;;;;;37.33;17.99;100269.53;1728005;82;20990;-55
2022/05/26 04:27:40;;;;;;;3.62;3.10;;;;;;;37.52;17.77;100265.97;1726731;82;21616;-56
2022/05/26 04:30:09;;;;;;;8.15;3.85;;;;;;;37.78;17.79;100267.33;1727766;81;21299;-55
2022/05/26 04:32:36;;;;;;;5.95;3.33;;;;;;;38.16;17.34;100264.17;1727860;82;21244;-55
2022/05/26 04:35:06;;;;;;;6.17;4.03;;;;;;;38.16;17.33;100269.62;1727727;82;47969;-56
2022/05/26 04:37:34;;;;;;;6.75;3.55;;;;;;;38.41;17.38;100272.07;1727261;82;21512;-61
2022/05/26 04:40:02;;;;;;;6.10;3.55;;;;;;;38.56;17.15;100270.87;1727369;82;21076;-55
2022/05/26 04:42:30;;;;;;;5.25;3.80;;;;;;;38.64;16.93;100274.69;1727691;82;21286;-56
2022/05/26 04:44:57;;;;;;;5.55;4.05;;;;;;;38.98;16.51;100267.05;1727701;82;21136;-54
2022/05/26 04:47:24;;;;;;;6.40;3.72;;;;;;;38.71;16.76;100264.42;1727953;82;21018;-56
2022/05/26 04:49:51;;;;;;;4.67;3.20;;;;;;;38.59;16.79;100273.64;1726882;82;21015;-60
2022/05/26 04:52:21;;;;;;;4.95;3.40;;;;;;;38.58;16.79;100264.49;1727849;82;22030;-55
2022/05/26 04:54:48;;;;;;;5.95;3.42;;;;;;;38.68;17.02;100265.17;1716577;82;26851;-56
2022/05/26 04:57:17;;;;;;;3.95;2.80;;;;;;;38.89;16.52;100262.69;1727845;82;22328;-56
2022/05/26 04:59:45;;;;;;;3.85;3.00;;;;;;;38.94;16.35;100267.02;1701202;82;21082;-56
2022/05/26 05:02:17;;;;;;;6.10;3.08;;;;;;;38.82;16.56;100263.20;1727027;82;20994;-54
2022/05/26 05:04:48;;;;;;;4.55;2.98;;;;;;;38.85;16.51;100256.42;1727164;81;21583;-55
2022/05/26 05:07:18;;;;;;;5.15;3.30;;;;;;;38.77;16.76;100253.41;1726416;82;21022;-56
2022/05/26 05:09:46;;;;;;;4.72;2.60;;;;;;;38.88;16.73;100252.17;1726557;82;21138;-56
2022/05/26 05:12:17;;;;;;;3.70;2.83;;;;;;;39.13;16.64;100248.29;1727537;82;21570;-55
2022/05/26 05:14:51;;;;;;;5.33;2.98;;;;;;;39.43;16.55;100254.98;1726513;82;21042;-61
2022/05/26 05:17:19;;;;;;;5.95;2.92;;;;;;;39.49;16.22;100245.88;1727343;82;21068;-55
2022/05/26 05:19:46;;;;;;;5.10;3.00;;;;;;;39.27;16.62;100248.44;1726678;82;21528;-60
2022/05/26 05:22:23;;;;;;;7.25;3.30;;;;;;;39.16;16.68;100253.77;1727198;82;21794;-56
2022/05/26 05:25:05;;;;;;;5.83;2.47;;;;;;;39.33;17.02;100244.21;1716651;82;21073;-55
2022/05/26 05:27:36;;;;;;;4.97;2.55;;;;;;;39.68;16.62;100251.09;1726923;82;21070;-59
2022/05/26 05:30:20;;;;;;;4.08;2.80;;;;;;;39.67;16.49;100244.05;1727407;82;21053;-56
2022/05/26 05:32:54;;;;;;;3.95;2.70;;;;;;;39.66;16.30;100248.69;1710915;82;21113;-55
2022/05/26 05:35:29;;;;;;;4.00;2.40;;;;;;;39.73;16.34;100243.89;1727051;82;21642;-57
2022/05/26 05:37:56;;;;;;;5.20;2.72;;;;;;;40.02;16.07;100238.00;1726976;82;21009;-56
2022/05/26 05:40:23;;;;;;;3.87;2.60;;;;;;;40.24;15.82;100233.44;1727689;82;21546;-55
2022/05/26 05:42:51;;;;;;;6.03;2.45;;;;;;;40.18;16.04;100239.06;1727313;82;21007;-59
2022/05/26 05:45:18;;;;;;;6.55;2.40;;;;;;;40.28;15.76;100236.96;1727130;82;21834;-56
2022/05/26 05:47:46;;;;;;;3.67;2.85;;;;;;;40.04;15.66;100237.02;1726784;82;21894;-60
2022/05/26 05:50:14;;;;;;;6.42;2.10;;;;;;;40.26;15.98;100242.02;1727121;82;21466;-55
2022/05/26 05:52:42;;;;;;;4.08;2.15;;;;;;;40.47;15.68;100239.16;1727497;82;21078;-62
2022/05/26 05:55:10;;;;;;;3.65;2.25;;;;;;;40.49;15.39;100229.98;1727062;82;21125;-56
2022/05/26 05:57:37;;;;;;;4.03;2.12;;;;;;;40.33;15.46;100225.66;1727351;82;21051;-61
2022/05/26 06:00:06;;;;;;;6.17;2.12;;;;;;;40.15;15.52;100220.72;1726890;82;21216;-57
2022/05/26 06:02:33;;;;;;;5.20;1.92;;;;;;;40.10;15.16;100228.67;1726805;82;21540;-61
2022/05/26 06:05:01;;;;;;;3.22;1.87;;;;;;;39.95;15.07;100226.27;1727409;81;21093;-56
2022/05/26 06:07:28;;;;;;;3.92;1.80;;;;;;;39.88;15.18;100220.97;1737008;80;21011;-55
2022/05/26 06:09:55;;;;;;;3.42;1.92;;;;;;;39.78;15.03;100220.36;1733746;82;21583;-55
2022/05/26 06:12:23;;;;;;;2.85;1.87;;;;;;;39.88;15.42;100222.34;1734441;82;21210;-60
2022/05/26 06:14:50;;;;;;;2.60;1.60;;;;;;;39.73;15.02;100218.56;1736284;80;22365;-57
2022/05/26 06:17:19;;;;;;;3.25;2.12;;;;;;;39.68;14.76;100206.06;1734848;82;21065;-55
2022/05/26 06:19:47;;;;;;;2.45;1.70;;;;;;;39.55;14.91;100208.88;1733552;82;21002;-58
2022/05/26 06:22:17;;;;;;;4.53;2.10;;;;;;;39.36;15.06;100206.64;1729521;81;21045;-62
2022/05/26 06:24:45;;;;;;;5.62;2.30;;;;;;;39.15;15.46;100208.59;1733875;82;21177;-56
2022/05/26 06:30:00;;;;;;;3.65;1.67;;;;;;;39.22;15.61;100207.09;1736503;80;21432;-61
2022/05/26 06:38:00;;;;;;;3.35;2.15;;;;;;;39.02;15.10;100203.25;1734804;80;21140;-56
2022/05/26 06:40:31;;;;;;;2.27;1.40;;;;;;;39.03;14.83;100209.48;1735685;80;21317;-57
2022/05/26 06:42:59;;;;;;;3.27;2.47;;;;;;;38.78;14.41;100203.77;1734320;82;21007;-55
2022/05/26 06:45:27;;;;;;;3.05;1.80;;;;;;;38.51;14.86;100205.86;1734552;82;21088;-55
2022/05/26 06:47:54;;;;;;;2.20;1.70;;;;;;;38.73;14.67;100210.94;1735655;80;21582;-56
2022/05/26 06:50:22;;;;;;;12.10;2.50;;;;;;;38.55;14.42;100207.45;1735796;80;21141;-55
2022/05/26 06:52:50;;;;;;;3.72;1.72;;;;;;;38.80;14.67;100206.37;1723496;80;20959;-56
2022/05/26 06:55:17;;;;;;;3.12;2.17;;;;;;;38.91;13.98;100203.16;1730562;81;21120;-56
2022/05/26 06:57:45;;;;;;;3.17;1.90;;;;;;;38.95;14.24;100203.19;1733644;82;21523;-59
2022/05/26 07:00:15;;;;;;;6.25;2.33;;;;;;;39.04;13.81;100200.13;1734970;82;21566;-55
2022/05/26 07:02:43;;;;;;;4.60;2.60;;;;;;;39.17;14.07;100204.92;1735221;80;21246;-57
2022/05/26 07:05:11;;;;;;;3.17;2.02;;;;;;;39.04;13.63;100202.27;1734939;82;21339;-55
2022/05/26 07:07:42;;;;;;;6.00;2.20;;;;;;;38.89;13.90;100191.84;1753100;81;21010;-55
2022/05/26 07:10:12;;;;;;;;;;;;;;;38.82;14.07;100190.41;1743769;80;20962;-56
2022/05/26 07:12:39;;;;;;;3.95;2.08;;;;;;;38.86;14.36;100198.03;1766948;80;20130;-62
2022/05/26 07:15:07;;;;;;;4.62;2.30;;;;;;;38.84;14.29;100194.14;1766817;81;21363;-56
2022/05/26 07:17:36;;;;;;;4.20;2.52;;;;;;;39.00;14.24;100189.20;1767167;80;21494;-59
2022/05/26 07:20:06;;;;;;;;;;;;;;;38.92;14.43;100190.31;1770788;81;20926;-58
2022/05/26 07:22:34;;;;;;;2.70;1.80;;;;;;;39.07;14.51;100191.20;1767229;80;20142;-58
2022/05/26 07:25:01;;;;;;;4.47;2.20;;;;;;;38.92;14.46;100188.36;1766804;81;21529;-55
2022/05/26 07:27:28;;;;;;;5.92;1.95;;;;;;;38.81;14.62;100192.94;1767034;80;21264;-55
2022/05/26 07:29:56;;;;;;;4.67;2.10;;;;;;;38.53;14.65;100192.63;1766393;81;20906;-57
2022/05/26 07:32:24;;;;;;;3.40;1.80;;;;;;;38.41;14.93;100180.84;1767100;80;20922;-62
2022/05/26 07:34:52;;;;;;;3.15;2.00;;;;;;;38.30;14.92;100180.50;1766995;80;21020;-55
2022/05/26 07:42:51;;;;;;;2.92;1.45;;;;;;;38.06;14.92;100173.05;1766542;81;21449;-56
2022/05/26 07:45:19;;;;;;;3.58;1.90;;;;;;;38.14;14.91;100165.17;1765610;81;21452;-55
2022/05/26 07:47:47;;;;;;;2.35;1.52;;;;;;;38.40;15.40;100158.09;1766950;80;21289;-64
2022/05/26 07:50:20;;;;;;;6.05;1.50;;;;;;;38.58;14.74;100164.48;1766294;81;21399;-54
2022/05/26 07:52:48;;;;;;;3.60;1.70;;;;;;;38.60;14.52;100165.46;1765817;81;21252;-56
2022/05/26 07:55:15;;;;;;;2.87;1.70;;;;;;;38.44;14.71;100154.81;1766248;80;20965;-57
2022/05/26 07:57:44;;;;;;;3.08;1.55;;;;;;;38.48;14.96;100152.13;1766357;80;21473;-62
2022/05/26 08:00:12;;;;;;;2.37;1.57;;;;;;;38.64;14.83;100152.10;1766705;80;21620;-57
2022/05/26 08:02:40;;;;;;;5.87;1.70;;;;;;;38.62;14.88;100151.69;1767082;80;21175;-54
2022/05/26 08:05:09;;;;;;;4.20;1.87;;;;;;;38.76;15.00;100155.12;1766800;81;21149;-56
2022/05/26 08:07:37;;;;;;;2.10;1.52;;;;;;;38.87;15.07;100150.57;1756414;80;20923;-61
2022/05/26 08:10:05;;;;;;;2.83;1.62;;;;;;;38.79;15.07;100140.75;1753527;81;21021;-56
2022/05/26 08:12:33;;;;;;;2.40;1.60;;;;;;;38.61;15.06;100145.27;1753877;80;21733;-57
2022/05/26 08:15:00;;;;;;;4.20;1.80;;;;;;;38.37;14.91;100152.02;1753943;80;20994;-63
2022/05/26 08:17:27;;;;;;;2.50;1.75;;;;;;;38.21;14.91;100149.50;1753868;80;21926;-57
2022/05/26 08:19:55;;;;;;;4.80;2.35;;;;;;;38.19;15.04;100148.52;1753376;80;20965;-61
2022/05/26 08:22:22;;;;;;;4.20;2.27;;;;;;;38.38;15.04;100158.47;1754399;80;21797;-54
2022/05/26 08:24:52;;;;;;;3.95;1.80;;;;;;;38.42;14.78;100134.00;1742491;81;21007;-56
2022/05/26 08:27:20;;;;;;;4.60;2.22;;;;;;;38.30;14.92;100148.64;1753228;81;20966;-59
2022/05/26 08:29:48;;;;;;;2.77;2.08;;;;;;;38.09;14.54;100144.31;1741766;81;21827;-61
2022/05/26 08:32:17;;;;;;;2.58;1.70;;;;;;;37.71;14.72;100138.02;1753450;81;21065;-56
2022/05/26 08:34:44;;;;;;;3.33;2.25;;;;;;;37.55;15.20;100141.51;1753448;81;21756;-55
2022/05/26 08:37:19;;;;;;;3.83;1.92;;;;;;;37.37;15.06;100152.87;1753539;80;20986;-57
2022/05/26 08:39:47;;;;;;;3.95;2.05;;;;;;;37.18;15.58;100148.91;1753739;81;21100;-62
2022/05/26 08:42:21;;;;;;;3.72;2.50;;;;;;;37.28;15.45;100144.22;1753147;81;22015;-58
2022/05/26 08:44:48;;;;;;;5.80;2.40;;;;;;;37.32;15.40;100142.33;1741612;81;20955;-59
2022/05/26 08:47:21;;;;;;;4.53;2.17;;;;;;;37.36;15.46;100144.52;1753643;80;21582;-58
2022/05/26 08:50:00;;;;;;;4.28;2.37;;;;;;;36.97;15.47;100142.56;1753286;81;21002;-57
2022/05/26 08:52:35;;;;;;;3.55;2.20;;;;;;;36.70;15.94;100134.92;1753726;81;20985;-56
2022/05/26 08:55:18;;;;;;;24.10;3.30;;;;;;;36.57;16.10;100130.83;1752063;81;21237;-56
2022/05/26 08:58:06;;;;;;;4.87;2.47;;;;;;;36.56;16.40;100124.62;1752468;81;20978;-58
2022/05/26 09:00:34;;;;;;;6.15;2.08;;;;;;;36.47;16.39;100132.20;1753597;80;21484;-63
2022/05/26 09:03:05;;;;;;;5.10;2.30;;;;;;;36.37;16.03;100128.14;1754394;80;21053;-59
2022/05/26 09:05:36;;;;;;;4.50;2.33;;;;;;;36.24;16.27;100126.72;1752292;80;21619;-55
2022/05/26 09:13:56;;;;;;;5.35;2.30;;;;;;;36.22;16.32;100116.23;1768785;80;21040;-59
2022/05/26 09:16:25;;;;;;;5.37;2.10;;;;;;;36.10;16.46;100119.08;1768707;80;21052;-62
2022/05/26 09:19:19;;;;;;;6.22;2.60;;;;;;;36.06;16.56;100121.73;1768049;80;21417;-56
2022/05/26 09:21:50;;;;;;;5.25;2.75;;;;;;;36.19;16.44;100110.73;1768298;81;21377;-56
2022/05/26 09:24:26;;;;;;;7.35;3.52;;;;;;;36.32;16.28;100122.20;1768115;81;20960;-54
2022/05/26 09:26:59;;;;;;;9.30;2.67;;;;;;;36.19;16.36;100122.95;1757907;81;20941;-56
2022/05/26 09:29:34;;;;;;;5.72;2.10;;;;;;;35.92;15.88;100119.30;1768944;80;20922;-61
2022/05/26 09:32:01;;;;;;;4.45;2.83;;;;;;;35.79;16.07;100126.20;1767506;81;20926;-60
2022/05/26 09:34:36;;;;;;;4.37;2.17;;;;;;;35.52;16.11;100125.83;1768960;80;21167;-59
2022/05/26 09:37:06;;;;;;;8.80;3.67;;;;;;;35.19;16.56;100122.16;1768297;80;20899;-55
2022/05/26 09:39:39;;;;;;;11.65;2.70;;;;;;;35.10;16.90;100121.78;1768538;81;28724;-57
2022/05/26 09:42:17;;;;;;;5.15;2.62;;;;;;;34.94;16.42;100120.98;1768333;81;21040;-56
2022/05/26 09:44:50;;;;;;;4.22;2.27;;;;;;;34.34;16.75;100121.57;1767863;81;20961;-56
2022/05/26 09:47:46;;;;;;;2.52;1.65;;;;;;;34.23;17.18;100120.50;1767797;81;22105;-65
2022/05/26 09:50:37;;;;;;;3.05;1.75;;;;;;;34.27;17.28;100117.32;1768325;80;20960;-59
2022/05/26 09:53:05;;;;;;;5.72;1.70;;;;;;;34.17;17.57;100108.34;1769018;80;21451;-59
2022/05/26 09:55:44;;;;;;;4.55;1.62;;;;;;;34.46;17.39;100113.38;1768809;80;20926;-56
2022/05/26 09:58:34;;;;;;;2.80;1.60;;;;;;;34.62;17.32;100101.23;1766706;80;21506;-63
2022/05/26 10:01:25;;;;;;;4.53;2.15;;;;;;;34.59;17.44;100100.03;1769427;80;20906;-56
2022/05/26 10:04:25;;;;;;;4.78;2.20;;;;;;;34.65;17.31;100100.55;1768704;80;21033;-60
2022/05/26 10:07:05;;;;;;;5.60;1.80;;;;;;;34.83;17.21;100098.28;1764969;80;21021;-62
2022/05/26 10:09:47;;;;;;;13.90;2.05;;;;;;;35.27;16.93;100080.52;1753918;80;21553;-55
2022/05/26 10:12:56;;;;;;;5.95;1.65;;;;;;;35.15;16.71;100093.63;1753172;81;21475;-62
2022/05/26 10:16:07;;;;;;;4.85;1.92;;;;;;;34.80;16.91;100092.98;1754231;80;21309;-56
2022/05/26 10:19:18;;;;;;;2.10;1.40;;;;;;;34.55;17.07;100090.23;1754254;80;21507;-59
2022/05/26 10:22:00;;;;;;;3.30;1.62;;;;;;;34.25;17.44;100087.13;1753910;80;22225;-55
2022/05/26 10:25:03;;;;;;;3.63;1.27;;;;;;;34.30;17.45;100082.81;1753763;80;20992;-63
2022/05/26 10:27:39;;;;;;;3.47;1.57;;;;;;;34.33;17.08;100084.83;1754253;80;21090;-59
2022/05/26 10:30:29;;;;;;;7.22;1.80;;;;;;;34.13;17.51;100074.43;1753809;80;21231;-56
2022/05/26 10:33:33;;;;;;;3.08;1.45;;;;;;;34.36;17.43;100078.70;1705406;81;21014;-57
2022/05/26 10:36:31;;;;;;;2.72;1.40;;;;;;;34.59;17.51;100058.07;1754399;80;21533;-61
2022/05/26 10:39:18;;;;;;;2.75;1.42;;;;;;;34.85;17.49;100074.33;1753590;81;21033;-62
2022/05/26 10:42:12;;;;;;;5.10;1.50;;;;;;;35.01;17.40;100073.78;1730901;82;21078;-59
2022/05/26 10:44:47;;;;;;;5.87;1.87;;;;;;;34.93;17.25;100063.90;1745159;82;21623;-57
2022/05/26 10:47:21;;;;;;;5.22;1.80;;;;;;;34.73;17.20;100071.15;1730100;82;21035;-56
2022/05/26 10:50:02;;;;;;;4.95;1.95;;;;;;;34.71;17.24;100059.90;1734107;82;21501;-56
2022/05/26 10:52:38;;;;;;;2.98;1.47;;;;;;;34.56;17.07;100066.89;1745442;80;21834;-59
2022/05/26 10:55:18;;;;;;;4.72;1.70;;;;;;;34.38;17.32;100046.67;1746734;80;20961;-59
2022/05/26 10:58:03;;;;;;;4.17;1.80;;;;;;;34.35;17.13;100053.56;1745529;80;22131;-60
2022/05/26 11:00:30;;;;;;;3.20;1.87;;;;;;;34.25;17.31;100053.31;1727811;80;21304;-60
2022/05/26 11:03:25;;;;;;;4.55;1.60;;;;;;;33.98;17.33;100048.11;1746512;80;21492;-56
2022/05/26 11:05:56;;;;;;;4.60;1.60;;;;;;;33.78;17.62;100049.89;1745151;82;21414;-55
2022/05/26 11:08:47;;;;;;;2.83;1.40;;;;;;;33.76;17.51;100042.70;1754032;80;21025;-59
2022/05/26 11:11:43;;;;;;;3.07;1.47;;;;;;;33.63;17.14;100046.78;1756762;81;21125;-59
2022/05/26 11:17:47;;;;;;;3.17;1.40;;;;;;;33.55;17.41;100055.83;1756735;81;20970;-59
2022/05/26 11:20:20;;;;;;;4.77;2.03;;;;;;;33.46;17.57;100034.92;1731772;80;20993;-57
2022/05/26 11:22:51;;;;;;;3.57;1.40;;;;;;;33.45;17.53;100054.13;1720024;81;20999;-58
2022/05/26 11:25:25;;;;;;;4.28;1.60;;;;;;;33.38;17.62;100046.63;1731692;81;21246;-60
2022/05/26 11:28:13;;;;;;;4.93;1.90;;;;;;;33.17;17.70;100042.14;1731660;81;21045;-55
2022/05/26 11:36:34;;;;;;;8.70;2.17;;;;;;;32.54;18.61;100035.48;1732515;80;20182;-62
2022/05/26 11:39:01;;;;;;;4.27;2.03;;;;;;;32.45;18.54;100026.16;1698551;82;22104;-56
2022/05/26 11:41:36;;;;;;;3.87;1.40;;;;;;;32.38;18.68;100031.28;1731979;81;21481;-57
2022/05/26 11:44:09;;;;;;;3.33;1.40;;;;;;;32.20;19.13;100027.98;1731261;82;21049;-63
2022/05/26 11:46:56;;;;;;;4.80;2.00;;;;;;;31.96;19.30;100027.36;1700199;82;21588;-56
2022/05/26 11:49:47;;;;;;;3.23;1.60;;;;;;;31.70;19.74;100035.09;1730791;82;21084;-58
2022/05/26 11:52:35;;;;;;;2.83;1.30;;;;;;;31.64;19.83;100028.91;1662889;85;21651;-57
2022/05/26 11:55:29;;;;;;;6.87;1.93;;;;;;;31.59;19.95;100024.48;1711064;82;21508;-56
2022/05/26 11:57:56;;;;;;;2.40;1.20;;;;;;;31.49;20.18;100022.20;1735342;82;21442;-55
2022/05/26 12:00:38;;;;;;;3.33;1.40;;;;;;;31.47;20.41;100017.69;1736156;80;21085;-56
2022/05/26 12:03:27;;;;;;;3.73;1.33;;;;;;;31.48;20.78;100024.64;1734700;81;20993;-62
2022/05/26 12:06:13;;;;;;;5.17;2.10;;;;;;;31.43;20.85;100020.81;1736000;80;21584;-55
2022/05/26 12:08:55;;;;;;;7.03;1.43;;;;;;;31.18;21.07;100022.00;1732143;80;21074;-61
2022/05/26 12:11:50;;;;;;;3.60;1.37;;;;;;;31.00;21.24;100016.48;1727741;82;21062;-57
2022/05/26 12:14:28;;;;;;;3.53;1.30;;;;;;;30.91;21.66;100019.77;1723755;82;21542;-56
2022/05/26 12:17:27;;;;;;;3.37;1.50;;;;;;;30.93;22.20;100014.30;1727641;82;21093;-55
2022/05/26 12:19:55;;;;;;;5.10;1.37;;;;;;;30.95;22.21;100016.65;1666894;85;22300;-56
2022/05/26 12:22:31;;;;;;;2.23;1.30;;;;;;;30.95;22.04;100013.95;1714329;82;21120;-58
2022/05/26 12:25:22;;;;;;;3.50;1.63;;;;;;;31.00;22.28;100016.48;1727611;82;21005;-55
2022/05/26 12:28:14;;;;;;;3.00;1.53;;;;;;;30.99;22.17;100014.35;1716670;82;21426;-56
2022/05/26 12:30:50;;;;;;;3.03;1.43;;;;;;;31.03;22.33;100013.14;1728004;82;21039;-58
2022/05/26 12:33:40;;;;;;;3.37;1.33;;;;;;;30.92;22.65;100001.17;1727354;82;21233;-55
2022/05/26 12:36:34;;;;;;;4.97;1.80;;;;;;;30.78;22.56;100013.50;1720160;82;20958;-55
2022/05/26 12:39:59;;;;;;;3.07;1.47;;;;;;;30.54;22.85;100018.10;1728143;82;20998;-56